createdAt,value
2018-07-04T00:00:43.798Z,19.47
2018-07-04T00:01:43.786Z,19.31
2018-07-04T00:02:43.775Z,19.25
2018-07-04T00:03:43.759Z,19.16
2018-07-04T00:04:43.747Z,19.18
2018-07-04T00:05:43.733Z,19.21
2018-07-04T00:06:43.724Z,19.23
2018-07-04T00:07:43.710Z,19.22
2018-07-04T00:08:43.704Z,19.21
2018-07-04T00:09:43.685Z,19.23
2018-07-04T00:10:43.672Z,19.18
2018-07-04T00:11:43.657Z,19.18
2018-07-04T00:12:43.651Z,19.14
2018-07-04T00:13:43.635Z,19.11
2018-07-04T00:14:43.952Z,19.10
2018-07-04T00:15:43.607Z,19.02
2018-07-04T00:16:43.646Z,19.06
2018-07-04T00:17:43.584Z,19.00
2018-07-04T00:18:43.565Z,18.95
2018-07-04T00:19:43.556Z,18.90
2018-07-04T00:20:43.554Z,18.92
2018-07-04T00:21:43.529Z,18.91
2018-07-04T00:22:43.517Z,18.92
2018-07-04T00:23:43.507Z,18.91
2018-07-04T00:24:43.489Z,18.92
2018-07-04T00:25:43.498Z,18.94
2018-07-04T00:26:43.464Z,18.91
2018-07-04T00:27:43.460Z,18.90
2018-07-04T00:28:43.443Z,18.88
2018-07-04T00:29:43.425Z,18.92
2018-07-04T00:30:43.412Z,18.90
2018-07-04T00:31:43.401Z,18.84
2018-07-04T00:32:43.492Z,18.87
2018-07-04T00:33:43.375Z,18.80
2018-07-04T00:34:43.365Z,18.80
2018-07-04T00:35:43.356Z,18.67
2018-07-04T00:36:43.338Z,18.65
2018-07-04T00:37:43.322Z,18.70
2018-07-04T00:38:43.308Z,18.63
2018-07-04T00:39:43.296Z,18.62
2018-07-04T00:40:43.283Z,18.52
2018-07-04T00:41:43.285Z,18.60
2018-07-04T00:42:43.259Z,18.45
2018-07-04T00:43:43.245Z,18.50
2018-07-04T00:44:43.240Z,18.45
2018-07-04T00:45:43.221Z,18.54
2018-07-04T00:46:43.208Z,18.47
2018-07-04T00:47:43.195Z,18.60
2018-07-04T00:48:43.183Z,18.54
2018-07-04T00:49:43.167Z,18.54
2018-07-04T00:50:43.157Z,18.58
2018-07-04T00:51:43.148Z,18.62
2018-07-04T00:52:43.128Z,18.51
2018-07-04T00:53:43.118Z,18.51
2018-07-04T00:54:43.103Z,18.45
2018-07-04T00:55:43.092Z,18.32
2018-07-04T00:56:43.138Z,18.32
2018-07-04T00:57:43.067Z,18.29
2018-07-04T00:58:43.067Z,18.35
2018-07-04T00:59:43.095Z,18.29
2018-07-04T01:00:43.026Z,18.32
2018-07-04T01:01:43.015Z,18.29
2018-07-04T01:02:43.018Z,18.23
2018-07-04T01:03:42.991Z,18.37
2018-07-04T01:04:42.975Z,18.21
2018-07-04T01:05:42.961Z,18.20
2018-07-04T01:06:42.957Z,18.27
2018-07-04T01:07:42.940Z,18.21
2018-07-04T01:08:42.920Z,18.08
2018-07-04T01:09:42.913Z,18.15
2018-07-04T01:10:42.897Z,18.15
2018-07-04T01:11:42.886Z,18.18
2018-07-04T01:12:42.872Z,18.12
2018-07-04T01:13:42.860Z,18.10
2018-07-04T01:14:42.844Z,18.08
2018-07-04T01:15:42.887Z,18.11
2018-07-04T01:16:42.820Z,18.08
2018-07-04T01:17:42.805Z,18.11
2018-07-04T01:18:42.792Z,18.07
2018-07-04T01:19:42.776Z,18.03
2018-07-04T01:20:42.763Z,18.10
2018-07-04T01:21:42.752Z,18.07
2018-07-04T01:22:42.745Z,18.03
2018-07-04T01:23:42.728Z,18.11
2018-07-04T01:24:42.710Z,17.97
2018-07-04T01:25:42.696Z,17.93
2018-07-04T01:26:42.687Z,17.92
2018-07-04T01:27:42.674Z,17.96
2018-07-04T01:28:42.664Z,17.84
2018-07-04T01:29:42.647Z,17.81
2018-07-04T01:30:42.634Z,17.82
2018-07-04T01:31:42.619Z,17.79
2018-07-04T01:32:42.607Z,17.79
2018-07-04T01:33:42.595Z,17.77
2018-07-04T01:34:42.580Z,17.71
2018-07-04T01:35:42.569Z,17.72
2018-07-04T01:36:42.557Z,17.71
2018-07-04T01:37:42.541Z,17.66
2018-07-04T01:38:42.534Z,17.79
2018-07-04T01:39:42.616Z,17.82
2018-07-04T01:40:42.506Z,17.79
2018-07-04T01:41:42.493Z,17.77
2018-07-04T01:42:42.474Z,17.64
2018-07-04T01:43:42.461Z,17.71
2018-07-04T01:44:42.451Z,17.75
2018-07-04T01:45:42.435Z,17.72
2018-07-04T01:46:42.420Z,17.75
2018-07-04T01:47:42.407Z,17.71
2018-07-04T01:48:42.398Z,17.71
2018-07-04T01:49:42.381Z,17.64
2018-07-04T01:50:42.368Z,17.63
2018-07-04T01:51:42.353Z,17.51
2018-07-04T01:52:42.344Z,17.51
2018-07-04T01:53:42.327Z,17.44
2018-07-04T01:54:42.313Z,17.58
2018-07-04T01:55:42.406Z,17.44
2018-07-04T01:56:42.317Z,17.59
2018-07-04T01:57:42.275Z,17.58
2018-07-04T01:58:42.262Z,17.56
2018-07-04T01:59:42.251Z,17.51
2018-07-04T02:00:42.237Z,17.55
2018-07-04T02:01:42.231Z,17.56
2018-07-04T02:02:42.208Z,17.55
2018-07-04T02:03:42.206Z,17.56
2018-07-04T02:04:42.180Z,17.43
2018-07-04T02:05:42.166Z,17.43
2018-07-04T02:06:42.154Z,17.48
2018-07-04T02:07:42.140Z,17.51
2018-07-04T02:08:42.126Z,17.37
2018-07-04T02:09:42.114Z,17.38
2018-07-04T02:10:42.107Z,17.44
2018-07-04T02:11:42.091Z,17.40
2018-07-04T02:12:42.072Z,17.43
2018-07-04T02:13:42.064Z,17.44
2018-07-04T02:14:42.049Z,17.40
2018-07-04T02:15:42.037Z,17.48
2018-07-04T02:16:42.019Z,17.48
2018-07-04T02:17:42.005Z,17.49
2018-07-04T02:18:41.993Z,17.46
2018-07-04T02:19:42.097Z,17.36
2018-07-04T02:20:41.966Z,17.31
2018-07-04T02:21:41.954Z,17.31
2018-07-04T02:22:41.992Z,17.25
2018-07-04T02:23:41.926Z,17.34
2018-07-04T02:24:41.913Z,17.30
2018-07-04T02:25:41.899Z,17.26
2018-07-04T02:26:41.888Z,17.26
2018-07-04T02:27:41.871Z,17.19
2018-07-04T02:28:41.859Z,17.18
2018-07-04T02:29:41.842Z,17.18
2018-07-04T02:30:41.835Z,17.15
2018-07-04T02:31:41.817Z,17.12
2018-07-04T02:32:41.805Z,17.11
2018-07-04T02:33:41.791Z,17.22
2018-07-04T02:34:41.776Z,17.22
2018-07-04T02:35:41.764Z,17.22
2018-07-04T02:36:41.758Z,17.37
2018-07-04T02:37:41.737Z,17.33
2018-07-04T02:38:41.782Z,17.26
2018-07-04T02:39:41.707Z,17.25
2018-07-04T02:40:41.693Z,17.28
2018-07-04T02:41:41.684Z,17.30
2018-07-04T02:42:41.669Z,17.22
2018-07-04T02:43:41.663Z,17.14
2018-07-04T02:44:41.646Z,17.14
2018-07-04T02:45:41.629Z,17.16
2018-07-04T02:46:41.615Z,17.21
2018-07-04T02:47:41.601Z,17.21
2018-07-04T02:48:41.584Z,17.25
2018-07-04T02:49:41.582Z,17.18
2018-07-04T02:50:41.558Z,17.15
2018-07-04T02:51:41.554Z,17.25
2018-07-04T02:52:41.534Z,17.14
2018-07-04T02:53:41.521Z,17.19
2018-07-04T02:54:41.508Z,17.22
2018-07-04T02:55:41.494Z,17.21
2018-07-04T02:56:41.479Z,17.14
2018-07-04T02:57:41.462Z,17.19
2018-07-04T02:58:41.447Z,17.15
2018-07-04T02:59:41.436Z,17.16
2018-07-04T03:00:41.423Z,17.12
2018-07-04T03:01:41.408Z,17.08
2018-07-04T03:02:41.395Z,17.11
2018-07-04T03:03:41.384Z,17.08
2018-07-04T03:04:41.371Z,17.11
2018-07-04T03:05:41.367Z,17.06
2018-07-04T03:06:41.347Z,17.16
2018-07-04T03:07:41.331Z,17.08
2018-07-04T03:08:41.313Z,17.12
2018-07-04T03:09:41.298Z,17.08
2018-07-04T03:10:41.286Z,17.11
2018-07-04T03:11:41.274Z,17.08
2018-07-04T03:12:41.256Z,17.00
2018-07-04T03:13:41.249Z,16.86
2018-07-04T03:14:41.232Z,16.91
2018-07-04T03:15:41.218Z,16.91
2018-07-04T03:16:41.201Z,16.94
2018-07-04T03:17:41.194Z,16.97
2018-07-04T03:18:41.175Z,16.88
2018-07-04T03:19:41.162Z,16.96
2018-07-04T03:20:41.159Z,16.96
2018-07-04T03:21:41.137Z,17.03
2018-07-04T03:22:41.123Z,17.04
2018-07-04T03:23:41.105Z,17.18
2018-07-04T03:24:41.096Z,17.26
2018-07-04T03:25:41.082Z,17.14
2018-07-04T03:26:41.065Z,17.19
2018-07-04T03:27:41.053Z,17.16
2018-07-04T03:28:41.043Z,16.98
2018-07-04T03:29:41.028Z,16.97
2018-07-04T03:30:41.013Z,16.85
2018-07-04T03:31:41.004Z,16.73
2018-07-04T03:32:40.983Z,16.50
2018-07-04T03:33:40.972Z,16.43
2018-07-04T03:34:40.956Z,16.41
2018-07-04T03:35:40.945Z,16.34
2018-07-04T03:36:40.933Z,16.45
2018-07-04T03:37:41.011Z,16.34
2018-07-04T03:38:40.901Z,16.46
2018-07-04T03:39:40.895Z,16.48
2018-07-04T03:40:40.925Z,16.52
2018-07-04T03:41:40.873Z,16.70
2018-07-04T03:42:40.846Z,16.71
2018-07-04T03:43:40.844Z,16.71
2018-07-04T03:44:40.820Z,16.79
2018-07-04T03:45:40.815Z,16.93
2018-07-04T03:46:40.796Z,16.96
2018-07-04T03:47:40.783Z,17.01
2018-07-04T03:48:40.768Z,17.04
2018-07-04T03:49:40.751Z,17.00
2018-07-04T03:50:40.744Z,16.82
2018-07-04T03:51:40.725Z,16.79
2018-07-04T03:52:40.725Z,16.81
2018-07-04T03:53:40.697Z,16.88
2018-07-04T03:54:40.681Z,16.88
2018-07-04T03:55:40.668Z,16.78
2018-07-04T03:56:40.658Z,16.89
2018-07-04T03:57:40.641Z,16.91
2018-07-04T03:58:40.627Z,17.01
2018-07-04T03:59:40.613Z,17.03
2018-07-04T04:00:40.625Z,17.04
2018-07-04T04:01:40.593Z,17.07
2018-07-04T04:02:40.579Z,16.88
2018-07-04T04:03:40.563Z,16.82
2018-07-04T04:04:40.551Z,16.86
2018-07-04T04:05:40.533Z,16.88
2018-07-04T04:06:40.518Z,16.64
2018-07-04T04:07:40.508Z,16.56
2018-07-04T04:08:40.494Z,16.34
2018-07-04T04:09:40.476Z,16.35
2018-07-04T04:10:40.466Z,16.34
2018-07-04T04:11:40.449Z,16.39
2018-07-04T04:12:40.434Z,16.57
2018-07-04T04:13:40.422Z,16.68
2018-07-04T04:14:40.406Z,16.83
2018-07-04T04:15:40.393Z,16.78
2018-07-04T04:16:40.380Z,16.96
2018-07-04T04:17:40.363Z,17.07
2018-07-04T04:18:40.356Z,17.08
2018-07-04T04:19:40.336Z,17.08
2018-07-04T04:20:40.324Z,17.03
2018-07-04T04:21:40.310Z,17.12
2018-07-04T04:22:40.296Z,17.03
2018-07-04T04:23:40.342Z,17.04
2018-07-04T04:24:40.268Z,16.94
2018-07-04T04:25:40.258Z,16.94
2018-07-04T04:26:40.246Z,16.88
2018-07-04T04:27:40.230Z,16.96
2018-07-04T04:28:40.214Z,16.96
2018-07-04T04:29:40.210Z,16.96
2018-07-04T04:30:40.188Z,17.07
2018-07-04T04:31:40.175Z,17.12
2018-07-04T04:32:40.159Z,17.07
2018-07-04T04:33:40.147Z,17.18
2018-07-04T04:34:40.136Z,17.15
2018-07-04T04:35:40.117Z,17.21
2018-07-04T04:36:40.105Z,17.15
2018-07-04T04:37:40.091Z,17.12
2018-07-04T04:38:40.076Z,17.18
2018-07-04T04:39:40.062Z,17.07
2018-07-04T04:40:40.047Z,17.06
2018-07-04T04:41:40.036Z,17.08
2018-07-04T04:42:40.022Z,17.07
2018-07-04T04:43:40.007Z,17.14
2018-07-04T04:44:39.991Z,17.12
2018-07-04T04:45:39.977Z,17.18
2018-07-04T04:46:39.966Z,17.18
2018-07-04T04:47:39.959Z,17.19
2018-07-04T04:48:39.936Z,17.23
2018-07-04T04:49:39.926Z,17.28
2018-07-04T04:50:39.911Z,17.21
2018-07-04T04:51:39.895Z,17.23
2018-07-04T04:52:39.881Z,17.36
2018-07-04T04:53:39.865Z,17.36
2018-07-04T04:54:39.860Z,17.41
2018-07-04T04:55:39.841Z,17.37
2018-07-04T04:56:39.826Z,17.38
2018-07-04T04:57:39.810Z,17.43
2018-07-04T04:58:39.807Z,17.44
2018-07-04T04:59:39.787Z,17.46
2018-07-04T05:00:39.893Z,17.40
2018-07-04T05:01:39.755Z,17.44
2018-07-04T05:02:39.741Z,17.43
2018-07-04T05:03:39.828Z,17.51
2018-07-04T05:04:39.714Z,17.59
2018-07-04T05:05:39.700Z,17.66
2018-07-04T05:06:39.685Z,17.63
2018-07-04T05:07:39.682Z,17.70
2018-07-04T05:08:39.658Z,17.71
2018-07-04T05:09:39.644Z,17.75
2018-07-04T05:10:39.635Z,17.75
2018-07-04T05:11:39.619Z,17.71
2018-07-04T05:12:39.604Z,17.66
2018-07-04T05:13:39.587Z,17.70
2018-07-04T05:14:39.575Z,17.70
2018-07-04T05:15:39.585Z,17.66
2018-07-04T05:16:39.650Z,17.77
2018-07-04T05:17:39.535Z,17.78
2018-07-04T05:18:39.524Z,17.81
2018-07-04T05:19:39.510Z,17.90
2018-07-04T05:20:39.494Z,17.93
2018-07-04T05:21:39.478Z,18.17
2018-07-04T05:22:39.476Z,18.14
2018-07-04T05:23:39.454Z,18.14
2018-07-04T05:24:39.436Z,18.20
2018-07-04T05:25:39.424Z,18.26
2018-07-04T05:26:39.412Z,18.33
2018-07-04T05:27:39.394Z,18.26
2018-07-04T05:28:39.384Z,18.27
2018-07-04T05:29:39.367Z,18.29
2018-07-04T05:30:39.367Z,18.30
2018-07-04T05:31:39.342Z,18.42
2018-07-04T05:32:39.445Z,18.50
2018-07-04T05:33:39.314Z,18.47
2018-07-04T05:34:39.306Z,18.52
2018-07-04T05:35:39.288Z,18.50
2018-07-04T05:36:39.273Z,18.50
2018-07-04T05:37:39.258Z,18.51
2018-07-04T05:38:39.245Z,18.62
2018-07-04T05:39:39.236Z,18.51
2018-07-04T05:40:39.216Z,18.48
2018-07-04T05:41:39.216Z,18.48
2018-07-04T05:42:39.194Z,18.45
2018-07-04T05:43:39.176Z,18.50
2018-07-04T05:44:39.164Z,18.45
2018-07-04T05:45:39.157Z,18.35
2018-07-04T05:46:39.136Z,18.39
2018-07-04T05:47:39.169Z,18.47
2018-07-04T05:48:39.109Z,18.60
2018-07-04T05:49:39.102Z,18.70
2018-07-04T05:50:39.084Z,18.80
2018-07-04T05:51:39.076Z,18.82
2018-07-04T05:52:39.055Z,18.87
2018-07-04T05:53:39.050Z,18.82
2018-07-04T05:54:39.035Z,18.84
2018-07-04T05:55:39.016Z,18.84
2018-07-04T05:56:39.005Z,18.75
2018-07-04T05:57:38.987Z,18.70
2018-07-04T05:58:38.976Z,18.60
2018-07-04T05:59:38.963Z,18.63
2018-07-04T06:00:38.946Z,18.70
2018-07-04T06:01:38.931Z,18.85
2018-07-04T06:02:38.951Z,18.72
2018-07-04T06:03:38.908Z,18.63
2018-07-04T06:04:38.891Z,18.60
2018-07-04T06:05:38.884Z,18.54
2018-07-04T06:06:38.868Z,18.69
2018-07-04T06:07:38.852Z,18.65
2018-07-04T06:08:38.838Z,18.72
2018-07-04T06:09:38.825Z,18.60
2018-07-04T06:10:38.819Z,18.66
2018-07-04T06:11:38.796Z,18.70
2018-07-04T06:12:38.786Z,18.76
2018-07-04T06:13:38.771Z,18.78
2018-07-04T06:14:38.754Z,18.76
2018-07-04T06:15:38.744Z,18.90
2018-07-04T06:16:38.733Z,19.00
2018-07-04T06:17:38.777Z,19.00
2018-07-04T06:18:38.704Z,19.07
2018-07-04T06:19:38.693Z,18.99
2018-07-04T06:20:38.686Z,18.94
2018-07-04T06:21:38.661Z,19.06
2018-07-04T06:22:38.648Z,19.00
2018-07-04T06:23:38.638Z,19.02
2018-07-04T06:24:38.646Z,19.00
2018-07-04T06:25:38.609Z,19.08
2018-07-04T06:26:38.595Z,19.07
2018-07-04T06:27:38.582Z,19.10
2018-07-04T06:28:38.572Z,19.21
2018-07-04T06:29:38.560Z,19.16
2018-07-04T06:30:38.545Z,19.19
2018-07-04T06:31:38.571Z,19.11
2018-07-04T06:32:38.515Z,19.18
2018-07-04T06:33:38.501Z,19.25
2018-07-04T06:34:38.497Z,19.10
2018-07-04T06:35:38.482Z,19.21
2018-07-04T06:36:38.461Z,19.22
2018-07-04T06:37:38.447Z,19.23
2018-07-04T06:38:38.436Z,19.28
2018-07-04T06:39:38.425Z,19.23
2018-07-04T06:40:38.410Z,19.13
2018-07-04T06:41:38.396Z,19.13
2018-07-04T06:42:38.383Z,19.21
2018-07-04T06:43:38.368Z,19.21
2018-07-04T06:44:38.359Z,19.31
2018-07-04T06:45:38.339Z,19.33
2018-07-04T06:46:38.329Z,19.26
2018-07-04T06:47:38.316Z,19.43
2018-07-04T06:48:38.300Z,19.59
2018-07-04T06:49:38.288Z,19.61
2018-07-04T06:50:38.276Z,19.66
2018-07-04T06:51:38.268Z,19.66
2018-07-04T06:52:38.251Z,19.77
2018-07-04T06:53:38.237Z,19.66
2018-07-04T06:54:38.227Z,19.66
2018-07-04T06:55:38.219Z,19.74
2018-07-04T06:56:38.196Z,19.86
2018-07-04T06:57:38.181Z,19.99
2018-07-04T06:58:38.177Z,20.10
2018-07-04T06:59:38.163Z,20.10
2018-07-04T07:00:38.141Z,20.16
2018-07-04T07:01:38.126Z,20.24
2018-07-04T07:02:38.116Z,20.36
2018-07-04T07:03:38.102Z,20.23
2018-07-04T07:04:38.087Z,20.17
2018-07-04T07:05:38.075Z,20.14
2018-07-04T07:06:38.061Z,19.96
2018-07-04T07:07:38.055Z,19.94
2018-07-04T07:08:38.073Z,19.86
2018-07-04T07:09:38.022Z,19.74
2018-07-04T07:10:38.013Z,19.74
2018-07-04T07:11:38.150Z,19.71
2018-07-04T07:12:37.981Z,19.71
2018-07-04T07:13:37.971Z,19.84
2018-07-04T07:14:37.954Z,19.94
2018-07-04T07:15:37.945Z,20.06
2018-07-04T07:16:37.934Z,20.17
2018-07-04T07:17:37.917Z,20.33
2018-07-04T07:18:37.908Z,20.33
2018-07-04T07:19:37.896Z,20.21
2018-07-04T07:20:37.889Z,20.20
2018-07-04T07:21:37.864Z,20.18
2018-07-04T07:22:37.857Z,20.24
2018-07-04T07:23:37.840Z,20.11
2018-07-04T07:24:37.826Z,20.13
2018-07-04T07:25:37.817Z,20.17
2018-07-04T07:26:37.801Z,20.23
2018-07-04T07:27:37.846Z,20.35
2018-07-04T07:28:37.778Z,20.50
2018-07-04T07:29:37.761Z,20.54
2018-07-04T07:30:37.778Z,20.47
2018-07-04T07:31:37.751Z,20.51
2018-07-04T07:32:37.727Z,20.33
2018-07-04T07:33:37.713Z,20.41
2018-07-04T07:34:37.697Z,20.43
2018-07-04T07:35:37.787Z,20.35
2018-07-04T07:36:37.674Z,20.42
2018-07-04T07:37:37.659Z,20.52
2018-07-04T07:38:37.647Z,20.58
2018-07-04T07:39:37.635Z,20.58
2018-07-04T07:40:37.620Z,20.58
2018-07-04T07:41:37.617Z,20.67
2018-07-04T07:42:37.595Z,20.80
2018-07-04T07:43:37.583Z,20.82
2018-07-04T07:44:37.565Z,20.87
2018-07-04T07:45:37.560Z,21.10
2018-07-04T07:46:37.547Z,21.16
2018-07-04T07:47:37.532Z,21.29
2018-07-04T07:48:37.569Z,21.22
2018-07-04T07:49:37.506Z,21.40
2018-07-04T07:50:37.491Z,21.54
2018-07-04T07:51:37.484Z,21.50
2018-07-04T07:52:37.467Z,21.65
2018-07-04T07:53:37.490Z,21.65
2018-07-04T07:54:37.479Z,21.65
2018-07-04T07:55:37.430Z,21.69
2018-07-04T07:56:37.412Z,21.92
2018-07-04T07:57:37.404Z,21.96
2018-07-04T07:58:37.389Z,22.07
2018-07-04T07:59:37.383Z,22.00
2018-07-04T08:00:37.366Z,22.05
2018-07-04T08:01:37.352Z,22.09
2018-07-04T08:02:37.342Z,21.92
2018-07-04T08:03:37.328Z,21.88
2018-07-04T08:04:37.317Z,21.94
2018-07-04T08:05:37.301Z,21.91
2018-07-04T08:06:37.296Z,21.94
2018-07-04T08:07:37.287Z,21.90
2018-07-04T08:08:37.271Z,22.07
2018-07-04T08:09:37.254Z,22.24
2018-07-04T08:10:37.246Z,22.31
2018-07-04T08:11:37.233Z,22.37
2018-07-04T08:12:37.253Z,22.35
2018-07-04T08:13:37.207Z,22.25
2018-07-04T08:14:37.195Z,22.33
2018-07-04T08:15:37.194Z,22.25
2018-07-04T08:16:37.181Z,22.24
2018-07-04T08:17:37.165Z,22.24
2018-07-04T08:18:37.152Z,22.20
2018-07-04T08:19:37.134Z,22.05
2018-07-04T08:20:37.136Z,22.22
2018-07-04T08:21:37.109Z,22.21
2018-07-04T08:22:37.109Z,22.22
2018-07-04T08:23:37.143Z,22.35
2018-07-04T08:24:37.071Z,22.39
2018-07-04T08:25:37.067Z,22.45
2018-07-04T08:26:37.056Z,22.43
2018-07-04T08:27:37.043Z,22.35
2018-07-04T08:28:37.029Z,22.40
2018-07-04T08:29:37.016Z,22.30
2018-07-04T08:30:37.007Z,22.40
2018-07-04T08:31:36.994Z,22.37
2018-07-04T08:32:36.980Z,22.55
2018-07-04T08:33:37.011Z,22.72
2018-07-04T08:34:37.008Z,22.95
2018-07-04T08:35:36.949Z,22.95
2018-07-04T08:36:36.936Z,23.01
2018-07-04T08:37:36.925Z,23.16
2018-07-04T08:38:36.914Z,23.25
2018-07-04T08:39:36.901Z,23.43
2018-07-04T08:40:36.888Z,23.58
2018-07-04T08:41:36.875Z,23.60
2018-07-04T08:42:36.861Z,23.57
2018-07-04T08:43:36.854Z,23.70
2018-07-04T08:44:36.891Z,23.65
2018-07-04T08:45:36.831Z,23.66
2018-07-04T08:46:36.820Z,23.40
2018-07-04T08:47:36.810Z,23.39
2018-07-04T08:48:36.792Z,23.25
2018-07-04T08:49:36.798Z,23.42
2018-07-04T08:50:36.805Z,23.47
2018-07-04T08:51:36.774Z,23.60
2018-07-04T08:52:36.809Z,23.76
2018-07-04T08:53:36.736Z,23.93
2018-07-04T08:54:36.725Z,24.16
2018-07-04T08:55:36.715Z,24.03
2018-07-04T08:56:36.703Z,24.12
2018-07-04T08:57:36.695Z,24.22
2018-07-04T08:58:36.712Z,24.27
2018-07-04T08:59:36.678Z,24.16
2018-07-04T09:00:36.661Z,24.25
2018-07-04T09:01:36.656Z,24.21
2018-07-04T09:02:36.637Z,24.25
2018-07-04T09:03:36.756Z,24.27
2018-07-04T09:04:36.617Z,24.43
2018-07-04T09:05:36.647Z,24.21
2018-07-04T09:06:36.596Z,24.18
2018-07-04T09:07:36.583Z,24.30
2018-07-04T09:08:36.573Z,24.34
2018-07-04T09:09:36.559Z,24.40
2018-07-04T09:10:36.551Z,24.20
2018-07-04T09:11:36.554Z,24.30
2018-07-04T09:12:36.537Z,24.53
2018-07-04T09:13:36.520Z,24.50
2018-07-04T09:14:36.506Z,24.68
2018-07-04T09:15:36.497Z,24.45
2018-07-04T09:16:36.488Z,24.52
2018-07-04T09:17:36.479Z,24.57
2018-07-04T09:18:36.465Z,24.76
2018-07-04T09:19:36.457Z,24.90
2018-07-04T09:20:36.441Z,24.85
2018-07-04T09:21:36.432Z,24.84
2018-07-04T09:22:36.421Z,24.80
2018-07-04T09:23:36.419Z,24.84
2018-07-04T09:24:36.447Z,24.90
2018-07-04T09:25:36.396Z,24.83
2018-07-04T09:26:36.390Z,24.91
2018-07-04T09:27:36.370Z,24.93
2018-07-04T09:28:36.356Z,25.00
2018-07-04T09:29:36.355Z,25.09
2018-07-04T09:30:36.403Z,25.33
2018-07-04T09:31:36.325Z,25.58
2018-07-04T09:32:36.324Z,25.52
2018-07-04T09:33:36.306Z,25.65
2018-07-04T09:34:36.296Z,25.64
2018-07-04T09:35:36.289Z,25.58
2018-07-04T09:36:36.274Z,25.55
2018-07-04T09:37:36.266Z,25.60
2018-07-04T09:38:36.252Z,25.60
2018-07-04T09:39:36.243Z,25.65
2018-07-04T09:40:36.240Z,25.73
2018-07-04T09:41:36.225Z,25.92
2018-07-04T09:42:36.216Z,26.02
2018-07-04T09:43:36.205Z,26.23
2018-07-04T09:44:36.197Z,26.15
2018-07-04T09:45:36.208Z,26.23
2018-07-04T09:46:36.208Z,25.90
2018-07-04T09:47:36.303Z,25.77
2018-07-04T09:48:36.151Z,25.69
2018-07-04T09:49:36.208Z,25.64
2018-07-04T09:50:36.158Z,25.64
2018-07-04T09:51:36.124Z,25.87
2018-07-04T09:52:36.124Z,25.98
2018-07-04T09:53:36.103Z,26.07
2018-07-04T09:54:36.090Z,26.15
2018-07-04T09:55:36.086Z,26.28
2018-07-04T09:56:36.070Z,26.37
2018-07-04T09:57:36.070Z,26.35
2018-07-04T09:58:36.054Z,26.37
2018-07-04T09:59:36.047Z,26.33
2018-07-04T10:00:36.041Z,26.36
2018-07-04T10:01:36.033Z,26.25
2018-07-04T10:02:36.115Z,26.29
2018-07-04T10:03:36.005Z,26.33
2018-07-04T10:04:36.011Z,26.30
2018-07-04T10:05:36.004Z,26.20
2018-07-04T10:06:35.978Z,26.29
2018-07-04T10:07:36.024Z,26.32
2018-07-04T10:08:35.959Z,26.48
2018-07-04T10:09:35.946Z,26.57
2018-07-04T10:10:35.938Z,26.58
2018-07-04T10:11:35.930Z,26.60
2018-07-04T10:12:35.952Z,26.67
2018-07-04T10:13:35.914Z,26.63
2018-07-04T10:14:35.896Z,26.62
2018-07-04T10:15:35.886Z,26.72
2018-07-04T10:16:35.877Z,26.81
2018-07-04T10:17:35.873Z,27.03
2018-07-04T10:18:35.867Z,27.22
2018-07-04T10:19:35.847Z,27.28
2018-07-04T10:20:35.838Z,27.34
2018-07-04T10:21:35.828Z,27.22
2018-07-04T10:22:35.826Z,27.09
2018-07-04T10:23:35.963Z,27.22
2018-07-04T10:24:35.868Z,27.24
2018-07-04T10:25:35.793Z,27.29
2018-07-04T10:26:35.791Z,27.39
2018-07-04T10:27:35.771Z,27.44
2018-07-04T10:28:35.815Z,27.37
2018-07-04T10:29:35.757Z,27.24
2018-07-04T10:30:35.758Z,27.09
2018-07-04T10:31:35.739Z,27.03
2018-07-04T10:32:35.723Z,27.07
2018-07-04T10:33:35.720Z,27.19
2018-07-04T10:34:35.708Z,27.28
2018-07-04T10:35:35.695Z,27.44
2018-07-04T10:36:35.688Z,27.66
2018-07-04T10:37:35.688Z,27.78
2018-07-04T10:38:35.679Z,27.77
2018-07-04T10:39:35.713Z,27.92
2018-07-04T10:40:35.663Z,28.07
2018-07-04T10:41:35.637Z,28.03
2018-07-04T10:42:35.639Z,28.09
2018-07-04T10:43:35.620Z,28.04
2018-07-04T10:44:35.613Z,27.87
2018-07-04T10:45:35.605Z,27.81
2018-07-04T10:46:35.594Z,27.81
2018-07-04T10:47:35.584Z,27.70
2018-07-04T10:48:35.579Z,27.66
2018-07-04T10:49:35.567Z,27.79
2018-07-04T10:50:35.559Z,27.84
2018-07-04T10:51:35.547Z,27.94
2018-07-04T10:52:35.550Z,27.82
2018-07-04T10:53:35.534Z,27.79
2018-07-04T10:54:35.527Z,27.70
2018-07-04T10:55:35.515Z,27.84
2018-07-04T10:56:35.515Z,27.92
2018-07-04T10:57:35.496Z,27.79
2018-07-04T10:58:35.522Z,28.03
2018-07-04T10:59:35.477Z,28.02
2018-07-04T11:00:35.465Z,28.17
2018-07-04T11:01:35.459Z,28.09
2018-07-04T11:02:35.445Z,28.22
2018-07-04T11:03:35.442Z,28.30
2018-07-04T11:04:35.502Z,28.37
2018-07-04T11:05:35.421Z,28.43
2018-07-04T11:06:35.416Z,28.33
2018-07-04T11:07:35.405Z,28.22
2018-07-04T11:08:35.413Z,28.04
2018-07-04T11:09:35.389Z,28.03
2018-07-04T11:10:35.382Z,28.07
2018-07-04T11:11:35.367Z,28.15
2018-07-04T11:12:35.358Z,28.24
2018-07-04T11:13:35.358Z,28.37
2018-07-04T11:14:35.341Z,28.70
2018-07-04T11:15:35.332Z,28.88
2018-07-04T11:16:35.322Z,29.02
2018-07-04T11:17:35.312Z,29.19
2018-07-04T11:18:35.308Z,29.21
2018-07-04T11:19:35.309Z,29.28
2018-07-04T11:20:35.290Z,29.26
2018-07-04T11:21:35.277Z,29.19
2018-07-04T11:22:35.307Z,29.31
2018-07-04T11:23:35.277Z,29.37
2018-07-04T11:24:35.252Z,29.33
2018-07-04T11:25:35.244Z,29.33
2018-07-04T11:26:35.249Z,29.37
2018-07-04T11:27:35.228Z,29.51
2018-07-04T11:28:35.280Z,29.53
2018-07-04T11:29:35.208Z,29.60
2018-07-04T11:30:35.203Z,29.55
2018-07-04T11:31:35.208Z,29.60
2018-07-04T11:32:35.190Z,29.49
2018-07-04T11:33:35.181Z,29.46
2018-07-04T11:34:35.165Z,29.52
2018-07-04T11:35:35.157Z,29.46
2018-07-04T11:36:35.168Z,29.37
2018-07-04T11:37:35.160Z,29.51
2018-07-04T11:38:35.133Z,29.57
2018-07-04T11:39:35.126Z,29.60
2018-07-04T11:40:35.120Z,29.73
2018-07-04T11:41:35.107Z,29.71
2018-07-04T11:42:35.110Z,29.82
2018-07-04T11:43:35.090Z,29.64
2018-07-04T11:44:35.095Z,29.61
2018-07-04T11:45:35.070Z,29.27
2018-07-04T11:46:35.066Z,28.85
2018-07-04T11:47:35.058Z,28.89
2018-07-04T11:48:35.046Z,28.92
2018-07-04T11:49:35.101Z,29.15
2018-07-04T11:50:35.031Z,29.16
2018-07-04T11:51:35.023Z,29.18
2018-07-04T11:52:35.015Z,29.30
2018-07-04T11:53:35.089Z,29.41
2018-07-04T11:54:35.017Z,29.53
2018-07-04T11:55:34.995Z,29.61
2018-07-04T11:56:35.004Z,29.67
2018-07-04T11:57:34.977Z,29.82
2018-07-04T11:58:34.965Z,29.90
2018-07-04T11:59:34.953Z,29.83
2018-07-04T12:00:34.944Z,29.86
2018-07-04T12:01:34.949Z,29.79
2018-07-04T12:02:34.932Z,29.83
2018-07-04T12:03:34.921Z,29.82
2018-07-04T12:04:34.913Z,29.86
2018-07-04T12:05:34.930Z,29.87
2018-07-04T12:06:34.900Z,30.00
2018-07-04T12:07:34.904Z,30.04
2018-07-04T12:08:34.896Z,29.98
2018-07-04T12:09:34.875Z,30.08
2018-07-04T12:10:34.866Z,30.15
2018-07-04T12:11:34.859Z,30.22
2018-07-04T12:12:34.901Z,30.08
2018-07-04T12:13:34.843Z,30.15
2018-07-04T12:14:34.844Z,30.23
2018-07-04T12:15:34.835Z,30.23
2018-07-04T12:16:34.828Z,30.31
2018-07-04T12:17:34.829Z,30.35
2018-07-04T12:18:34.799Z,30.31
2018-07-04T12:19:34.800Z,30.31
2018-07-04T12:20:34.790Z,30.27
2018-07-04T12:21:34.790Z,30.20
2018-07-04T12:22:34.776Z,30.29
2018-07-04T12:23:34.760Z,30.29
2018-07-04T12:24:34.756Z,30.27
2018-07-04T12:25:34.848Z,30.11
2018-07-04T12:26:34.774Z,29.95
2018-07-04T12:27:34.744Z,29.97
2018-07-04T12:28:34.728Z,30.01
2018-07-04T12:29:34.720Z,30.04
2018-07-04T12:30:34.702Z,30.02
2018-07-04T12:31:34.694Z,30.05
2018-07-04T12:32:34.700Z,30.27
2018-07-04T12:33:34.681Z,30.10
2018-07-04T12:34:34.681Z,30.31
2018-07-04T12:35:34.673Z,30.04
2018-07-04T12:36:34.655Z,30.16
2018-07-04T12:37:34.728Z,30.19
2018-07-04T12:38:34.637Z,30.26
2018-07-04T12:39:34.633Z,30.00
2018-07-04T12:40:34.686Z,29.90
2018-07-04T12:41:34.624Z,30.04
2018-07-04T12:42:34.611Z,30.16
2018-07-04T12:43:34.753Z,30.20
2018-07-04T12:44:34.597Z,30.31
2018-07-04T12:45:39.487Z,30.22
2018-07-04T12:46:34.585Z,30.26
2018-07-04T12:47:34.576Z,30.43
2018-07-04T12:48:34.557Z,30.46
2018-07-04T12:49:34.554Z,30.39
2018-07-04T12:50:34.544Z,30.19
2018-07-04T12:51:34.541Z,30.15
2018-07-04T12:52:34.528Z,30.24